JBU1817 KEWR-TBPB
Flight info
| Callsign | JBU1817 |
|---|---|
| Flight time | N/A |
| Altitude | 37000 |
| Route | ELVAE DCT NECCK DCT DIXIE Y481 KINGG/M075F370 DCT KINER L461 OPAUL/N0437F370 L461 YIYYO DCT LAMKN DCT ANU UA632 BGI |
| Aircraft | A20N/M-SDE2E3FGHIRWXY/LB1 |
Departure
| Time | 2026-04-23 17:43 |
|---|---|
| Airport | Newark Liberty International Airport (KEWR) |
Arrival
| Time | N/A |
|---|---|
| Airport | Grantley Adams International Airport (TBPB) |
| Time | Latitude | Longitude | Altitude | Speed | Heading |
|---|---|---|---|---|---|
| 2026-04-23 17:29 | 40.68302 | -74.18451 | 20 ft | 0 kts | 4° |
| 2026-04-23 17:35 | 40.68286 | -74.18453 | 20 ft | 4 kts | 4° |
| 2026-04-23 17:35 | 40.68257 | -74.18455 | 22 ft | 4 kts | 4° |
| 2026-04-23 17:36 | 40.68232 | -74.18457 | 22 ft | 2 kts | 4° |
| 2026-04-23 17:36 | 40.68213 | -74.18461 | 22 ft | 3 kts | 51° |
| 2026-04-23 17:36 | 40.68212 | -74.18493 | 21 ft | 3 kts | 97° |
| 2026-04-23 17:36 | 40.68213 | -74.18493 | 21 ft | 0 kts | 97° |
| 2026-04-23 17:37 | 40.68212 | -74.18492 | 20 ft | 0 kts | 97° |
| 2026-04-23 17:38 | 40.68211 | -74.18480 | 20 ft | 3 kts | 97° |
| 2026-04-23 17:38 | 40.68211 | -74.18417 | 20 ft | 11 kts | 99° |
| 2026-04-23 17:38 | 40.68205 | -74.18296 | 20 ft | 15 kts | 92° |
| 2026-04-23 17:38 | 40.68201 | -74.18144 | 20 ft | 18 kts | 94° |
| 2026-04-23 17:39 | 40.68190 | -74.17971 | 20 ft | 20 kts | 92° |
| 2026-04-23 17:39 | 40.68171 | -74.17847 | 20 ft | 5 kts | 174° |
| 2026-04-23 17:39 | 40.68124 | -74.17851 | 20 ft | 9 kts | 190° |
| 2026-04-23 17:39 | 40.68062 | -74.17888 | 21 ft | 11 kts | 207° |
| 2026-04-23 17:40 | 40.67985 | -74.17938 | 20 ft | 13 kts | 206° |
| 2026-04-23 17:40 | 40.67895 | -74.17998 | 20 ft | 16 kts | 207° |
| 2026-04-23 17:40 | 40.67816 | -74.18051 | 21 ft | 9 kts | 207° |
| 2026-04-23 17:40 | 40.67754 | -74.18090 | 20 ft | 11 kts | 204° |
| 2026-04-23 17:41 | 40.67677 | -74.18129 | 20 ft | 13 kts | 184° |
| 2026-04-23 17:41 | 40.67561 | -74.17949 | 20 ft | 12 kts | 85° |
| 2026-04-23 17:41 | 40.67624 | -74.17890 | 20 ft | 12 kts | 28° |
| 2026-04-23 17:42 | 40.67644 | -74.17878 | 19 ft | 0 kts | 28° |
| 2026-04-23 17:42 | 40.67669 | -74.17860 | 19 ft | 26 kts | 28° |
| 2026-04-23 17:42 | 40.68080 | -74.17607 | 19 ft | 99 kts | 28° |
| 2026-04-23 17:43 | 40.68861 | -74.17114 | 23 ft | 151 kts | 22° |
| 2026-04-23 17:43 | 40.69841 | -74.16479 | 595 ft | 152 kts | 16° |
| 2026-04-23 17:43 | 40.70815 | -74.15897 | 1235 ft | 160 kts | 26° |
| 2026-04-23 17:43 | 40.71694 | -74.14850 | 1739 ft | 183 kts | 50° |
| 2026-04-23 17:44 | 40.72408 | -74.13359 | 2220 ft | 200 kts | 56° |
| 2026-04-23 17:44 | 40.73211 | -74.11787 | 2797 ft | 212 kts | 44° |
| 2026-04-23 17:44 | 40.75908 | -74.09791 | 3760 ft | 243 kts | 1° |
| 2026-04-23 17:45 | 40.77628 | -74.10110 | 4177 ft | 259 kts | 338° |
| 2026-04-23 17:45 | 40.80338 | -74.13385 | 5390 ft | 287 kts | 298° |
| 2026-04-23 17:45 | 40.81029 | -74.15934 | 5938 ft | 305 kts | 284° |